Skip to main content

NOAA/GLERL Met Station at Muskegon, MI

Previous 3 Hours (2 minute increments)
See also Previous 5 Days (top of hour)
Jump down to Data
Switch to [English][Metric]
Zoom: Click and drag, Pan: shift-click and drag, Unzoom: double-click, Unzoom All






See also 1-day windrose plot


NOAA/GLERL Met Station at Muskegon, MI

Previous 3 Hours (2 minute increments)
See also Previous 5 Days (top of hour only)
Jump up to Graphs
Switch to [English][Metric]
                  Wind  Wind  Wind   Air   Dew   Rel     Sta   PAR
                   Spd   Gst   Dir  Temp    Pt   Hum    Pres uE/m2/
YYYY-MM-DD   EDT   m/s   m/s   deg     C     C     %      mb   sec
2018-06-18 09:00   5.5   6.3   201  20.6  19.6  94.0  992.20  1041
2018-06-18 08:58   5.9   6.5   200  20.6  19.6  93.8  992.00   976
2018-06-18 08:56   6.5   7.2   200  20.7  19.7  93.7  992.00   929
2018-06-18 08:54   6.6   7.4   205  20.7  19.7  93.9  992.00   908
2018-06-18 08:52   7.0   7.7   206  20.7  19.6  93.5  991.90   893
2018-06-18 08:50   7.3   7.7   205  20.8  19.7  93.3  991.90   914
2018-06-18 08:48   7.3   7.7   208  20.8  19.7  93.5  991.90   939
2018-06-18 08:46   7.3   7.8   204  20.8  19.7  93.2  991.90   978
2018-06-18 08:44   7.0   7.5   197  20.9  19.8  93.3  991.90  1049
2018-06-18 08:42   6.8   7.5   197  20.9  19.8  93.5  991.90  1055
2018-06-18 08:40   6.3   7.1   193  20.9  19.9  93.9  991.90  1142
2018-06-18 08:38   6.8   7.4   193  20.9  19.9  94.0  991.90  1184
2018-06-18 08:36   6.4   7.2   191  20.9  19.9  94.0  991.90  1021
2018-06-18 08:34   6.3   7.3   188  20.9  19.9  94.1  991.80   956
2018-06-18 08:32   6.1   6.9   187  20.9  20.0  94.3  991.90   849
2018-06-18 08:30   6.0   6.9   189  20.9  20.0  94.3  991.90   790
2018-06-18 08:28   6.2   6.8   186  21.0  20.0  94.2  991.90   770
2018-06-18 08:26   6.3   7.0   189  20.9  19.9  93.9  991.90   743
2018-06-18 08:24   6.3   7.5   190  21.0  19.9  93.4  991.90   801
2018-06-18 08:22   6.0   6.9   189  20.9  19.8  93.4  992.00   844
2018-06-18 08:20   5.9   6.7   188  20.9  19.9  93.7  992.00  1020
2018-06-18 08:18   6.0   7.0   189  20.9  20.0  94.3  992.00  1081
2018-06-18 08:16   5.8   7.0   189  20.8  20.0  95.1  992.00  1034
2018-06-18 08:14   6.2   7.1   188  20.7  19.9  95.0  992.10   794
2018-06-18 08:12   5.6   6.4   191  20.6  19.8  95.2  992.20   636
2018-06-18 08:10   5.6   6.8   187  20.5  19.8  95.4  992.20   578
2018-06-18 08:08   5.6   6.7   189  20.5  19.7  95.3  992.20   541
2018-06-18 08:06   6.7   7.5   188  20.5  19.8  95.8  992.20   519
2018-06-18 08:04   6.1   7.2   188  20.5  19.8  95.9  992.20   496
2018-06-18 08:02   6.4   7.3   190  20.5  19.8  95.9  992.20   470
2018-06-18 08:00   6.2   6.9   191  20.5  19.8  95.7  992.20   450
2018-06-18 07:58   6.6   7.3   192  20.5  19.8  95.6  992.20   441
2018-06-18 07:56   5.5   7.1   190  20.6  19.9  95.4  992.20   446
2018-06-18 07:54   6.2   6.9   187  20.6  19.8  95.2  992.20   489
2018-06-18 07:52   5.8   6.9   187  20.7  20.0  95.5  992.20   476
2018-06-18 07:50   6.1   6.9   188  20.7  20.0  95.5  992.20   444
2018-06-18 07:48   6.0   6.9   187  20.7  20.0  95.6  992.20   429
2018-06-18 07:46   5.6   6.6   189  20.6  19.9  95.4  992.10   512
2018-06-18 07:44   5.8   6.5   187  20.6  19.9  95.4  992.00   543
2018-06-18 07:42   6.5   7.2   187  20.6  19.9  95.9  991.90   477
2018-06-18 07:40   6.2   7.2   185  20.6  20.1  96.6  991.80   468
2018-06-18 07:38   5.8   6.9   186  20.6  20.1  96.6  991.80   386
2018-06-18 07:36   6.1   6.7   191  20.6  20.1  96.6  991.70   340
2018-06-18 07:34   5.6   7.0   190  20.5  20.0  96.7  991.70   302
2018-06-18 07:32   5.6   6.6   187  20.5  20.0  96.8  991.70   290
2018-06-18 07:30   6.0   7.0   189  20.5  20.0  96.9  991.70   289
2018-06-18 07:28   6.3   7.0   191  20.5  20.0  97.0  991.70   278
2018-06-18 07:26   6.1   7.0   190  20.5  20.0  97.0  991.70   269
2018-06-18 07:24   5.8   6.6   185  20.4  19.9  97.0  991.70   263
2018-06-18 07:22   5.8   6.5   188  20.4  20.0  97.4  991.70   255
2018-06-18 07:20   5.8   6.9   187  20.4  20.0  97.5  991.70   248
2018-06-18 07:18   5.6   6.3   189  20.4  20.0  97.3  991.70   240
2018-06-18 07:16   5.7   6.7   187  20.4  20.0  97.5  991.70   226
2018-06-18 07:14   5.5   6.2   186  20.3  19.9  97.8  991.70   211
2018-06-18 07:12   5.1   6.1   191  20.3  20.0  98.2  991.70   199
2018-06-18 07:10   5.5   6.1   186  20.3  20.1  98.7  991.60   183
2018-06-18 07:08   5.1   5.6   186  20.3  20.1  98.7  991.60   172
2018-06-18 07:06   5.4   6.0   188  20.2  20.0  98.5  991.70   170
2018-06-18 07:04   5.1   5.9   189  20.1  19.8  98.3  991.70   169
2018-06-18 07:02   4.8   5.3   188  20.1  19.8  98.2  991.70   164
2018-06-18 07:00   4.5   5.2   185  20.0  19.7  98.4  991.70   153
2018-06-18 06:58   4.2   4.6   189  20.0  19.8  98.6  991.70   142
2018-06-18 06:56   3.9   4.6   188  19.9  19.7  98.7  991.70   130
2018-06-18 06:54   3.7   4.3   187  19.8  19.6  98.7  991.70   121
2018-06-18 06:52   3.8   4.3   189  19.8  19.6  98.7  991.70   112
2018-06-18 06:50   3.2   3.7   184  19.8  19.6  98.5  991.70   103
2018-06-18 06:48   3.1   3.5   183  19.8  19.5  97.9  991.70    95
2018-06-18 06:46   2.7   3.3   186  19.8  19.4  97.8  991.80    89
2018-06-18 06:44   2.6   2.8   191  19.8  19.5  98.2  991.90    83
2018-06-18 06:42   2.6   2.9   209  19.8  19.5  98.4  992.00    78
2018-06-18 06:40   2.3   2.5   212  19.8  19.5  98.3  992.00    72
2018-06-18 06:38   2.1   2.4   214  19.7  19.4  98.0  992.00    67
2018-06-18 06:36   1.8   2.0   206  19.7  19.3  97.6  992.00    62
2018-06-18 06:34   2.1   2.4   200  19.7  19.3  97.4  992.10    57
2018-06-18 06:32   2.0   2.3   207  19.7  19.3  97.8  992.20    51
2018-06-18 06:30   1.3   1.5   222  19.7  19.3  97.4  992.20    46
2018-06-18 06:28   1.9   2.3   246  19.7  19.2  97.0  992.20    41
2018-06-18 06:26   1.9   2.2   241  19.8  19.2  96.4  992.20    36
2018-06-18 06:24   1.3   1.6   243  19.9  19.4  96.6  992.20    31
2018-06-18 06:22   1.8   2.0   244  20.0  19.5  97.0  992.20    27
2018-06-18 06:20   1.4   1.8   267  20.0  19.5  97.0  992.20    23
2018-06-18 06:18   1.8   2.2   270  20.0  19.5  96.6  992.20    20
2018-06-18 06:16   1.8   2.2   268  20.0  19.4  96.4  992.20    17
2018-06-18 06:14   1.8   2.3   272  20.0  19.4  96.1  992.20    14
2018-06-18 06:12   1.4   1.8   272  20.0  19.4  96.0  992.20    12
2018-06-18 06:10   1.5   2.0   264  20.0  19.5  96.6  992.20    10
2018-06-18 06:08   2.0   2.3   231  19.9  19.3  96.1  992.20     8
2018-06-18 06:06   1.3   2.2   219  19.9  19.2  95.7  992.20     7
2018-06-18 06:04   0.9   1.3   231  20.0  19.3  95.6  992.20     6
2018-06-18 06:02   1.6   2.2   254  20.0  19.2  95.0  992.30     5
2018-06-18 06:00   1.6   2.3   246  19.9  19.0  94.5  992.20     4